sensor_id;sensor_type;location;lat;lon;timestamp;P1;durP1;ratioP1;P2;durP2;ratioP2
43519;SDS011;46848;51.980;5.918;2023-03-20T00:00:36;16.25;;;9.20;;
43519;SDS011;46848;51.980;5.918;2023-03-20T00:03:03;15.23;;;8.77;;
43519;SDS011;46848;51.980;5.918;2023-03-20T00:05:29;13.48;;;8.25;;
43519;SDS011;46848;51.980;5.918;2023-03-20T00:07:56;12.65;;;8.00;;
43519;SDS011;46848;51.980;5.918;2023-03-20T00:10:25;18.20;;;9.75;;
43519;SDS011;46848;51.980;5.918;2023-03-20T00:13:10;15.65;;;8.95;;
43519;SDS011;46848;51.980;5.918;2023-03-20T00:15:40;13.45;;;8.82;;
43519;SDS011;46848;51.980;5.918;2023-03-20T00:18:15;13.30;;;8.45;;
43519;SDS011;46848;51.980;5.918;2023-03-20T00:20:46;14.13;;;7.97;;
43519;SDS011;46848;51.980;5.918;2023-03-20T00:23:12;15.15;;;7.20;;
43519;SDS011;46848;51.980;5.918;2023-03-20T00:25:38;11.77;;;7.07;;
43519;SDS011;46848;51.980;5.918;2023-03-20T00:30:58;17.13;;;8.60;;
43519;SDS011;46848;51.980;5.918;2023-03-20T00:33:24;11.93;;;7.70;;
43519;SDS011;46848;51.980;5.918;2023-03-20T00:35:51;14.82;;;7.78;;
43519;SDS011;46848;51.980;5.918;2023-03-20T00:38:16;13.93;;;8.10;;
43519;SDS011;46848;51.980;5.918;2023-03-20T00:40:42;13.80;;;8.60;;
43519;SDS011;46848;51.980;5.918;2023-03-20T00:43:08;15.55;;;7.45;;
43519;SDS011;46848;51.980;5.918;2023-03-20T00:45:37;13.47;;;7.70;;
43519;SDS011;46848;51.980;5.918;2023-03-20T00:48:03;10.98;;;7.28;;
43519;SDS011;46848;51.980;5.918;2023-03-20T00:50:30;14.45;;;8.10;;
43519;SDS011;46848;51.980;5.918;2023-03-20T00:52:56;12.03;;;7.63;;
43519;SDS011;46848;51.980;5.918;2023-03-20T00:55:23;15.85;;;8.82;;
43519;SDS011;46848;51.980;5.918;2023-03-20T00:57:55;10.98;;;7.90;;
43519;SDS011;46848;51.980;5.918;2023-03-20T01:00:24;10.73;;;7.35;;
43519;SDS011;46848;51.980;5.918;2023-03-20T01:03:01;12.05;;;7.53;;
43519;SDS011;46848;51.980;5.918;2023-03-20T01:05:35;14.68;;;8.45;;
43519;SDS011;46848;51.980;5.918;2023-03-20T01:08:01;10.98;;;7.90;;
43519;SDS011;46848;51.980;5.918;2023-03-20T01:10:28;16.93;;;9.80;;
43519;SDS011;46848;51.980;5.918;2023-03-20T01:12:57;15.97;;;10.87;;
43519;SDS011;46848;51.980;5.918;2023-03-20T01:15:26;14.80;;;10.07;;
43519;SDS011;46848;51.980;5.918;2023-03-20T01:17:56;15.70;;;10.38;;
43519;SDS011;46848;51.980;5.918;2023-03-20T01:20:23;15.18;;;10.27;;
43519;SDS011;46848;51.980;5.918;2023-03-20T01:22:51;16.38;;;10.18;;
43519;SDS011;46848;51.980;5.918;2023-03-20T01:25:18;17.45;;;10.45;;
43519;SDS011;46848;51.980;5.918;2023-03-20T01:27:46;16.35;;;11.00;;
43519;SDS011;46848;51.980;5.918;2023-03-20T01:30:17;17.17;;;11.75;;
43519;SDS011;46848;51.980;5.918;2023-03-20T01:32:51;19.63;;;12.57;;
43519;SDS011;46848;51.980;5.918;2023-03-20T01:35:21;19.80;;;12.30;;
43519;SDS011;46848;51.980;5.918;2023-03-20T01:37:49;18.25;;;12.00;;
43519;SDS011;46848;51.980;5.918;2023-03-20T01:43:04;15.68;;;10.48;;
43519;SDS011;46848;51.980;5.918;2023-03-20T01:45:37;18.37;;;10.10;;
43519;SDS011;46848;51.980;5.918;2023-03-20T01:48:16;16.87;;;9.40;;
43519;SDS011;46848;51.980;5.918;2023-03-20T01:50:43;16.35;;;8.95;;
43519;SDS011;46848;51.980;5.918;2023-03-20T01:53:16;13.48;;;8.35;;
43519;SDS011;46848;51.980;5.918;2023-03-20T01:55:46;15.87;;;9.60;;
43519;SDS011;46848;51.980;5.918;2023-03-20T01:58:16;14.60;;;8.43;;
43519;SDS011;46848;51.980;5.918;2023-03-20T02:00:48;13.73;;;8.17;;
43519;SDS011;46848;51.980;5.918;2023-03-20T02:03:13;13.35;;;7.78;;
43519;SDS011;46848;51.980;5.918;2023-03-20T02:05:40;14.43;;;8.37;;
43519;SDS011;46848;51.980;5.918;2023-03-20T02:08:14;12.95;;;7.90;;
43519;SDS011;46848;51.980;5.918;2023-03-20T02:10:48;14.57;;;8.47;;
43519;SDS011;46848;51.980;5.918;2023-03-20T02:13:14;13.27;;;8.30;;
43519;SDS011;46848;51.980;5.918;2023-03-20T02:15:58;13.77;;;7.43;;
43519;SDS011;46848;51.980;5.918;2023-03-20T02:18:24;15.23;;;8.80;;
43519;SDS011;46848;51.980;5.918;2023-03-20T02:34:07;10.68;;;6.28;;
43519;SDS011;46848;51.980;5.918;2023-03-20T02:40:07;9.57;;;5.83;;
43519;SDS011;46848;51.980;5.918;2023-03-20T02:42:40;9.50;;;4.70;;
43519;SDS011;46848;51.980;5.918;2023-03-20T02:47:51;7.97;;;4.33;;
43519;SDS011;46848;51.980;5.918;2023-03-20T02:50:20;8.50;;;4.07;;
43519;SDS011;46848;51.980;5.918;2023-03-20T02:55:47;7.33;;;3.27;;
43519;SDS011;46848;51.980;5.918;2023-03-20T03:01:06;6.77;;;3.40;;
43519;SDS011;46848;51.980;5.918;2023-03-20T03:04:14;8.23;;;3.23;;
43519;SDS011;46848;51.980;5.918;2023-03-20T03:06:35;5.25;;;2.53;;
43519;SDS011;46848;51.980;5.918;2023-03-20T03:09:09;5.13;;;2.40;;
43519;SDS011;46848;51.980;5.918;2023-03-20T03:11:43;7.40;;;2.50;;
43519;SDS011;46848;51.980;5.918;2023-03-20T03:14:27;5.77;;;2.53;;
43519;SDS011;46848;51.980;5.918;2023-03-20T03:16:57;5.77;;;2.53;;
43519;SDS011;46848;51.980;5.918;2023-03-20T03:19:25;7.50;;;2.80;;
43519;SDS011;46848;51.980;5.918;2023-03-20T03:21:53;7.30;;;3.60;;
43519;SDS011;46848;51.980;5.918;2023-03-20T03:25:04;6.23;;;3.33;;
43519;SDS011;46848;51.980;5.918;2023-03-20T03:27:43;7.97;;;3.70;;
43519;SDS011;46848;51.980;5.918;2023-03-20T03:30:10;7.47;;;3.80;;
43519;SDS011;46848;51.980;5.918;2023-03-20T03:32:47;5.73;;;3.40;;
43519;SDS011;46848;51.980;5.918;2023-03-20T03:35:16;8.40;;;4.07;;
43519;SDS011;46848;51.980;5.918;2023-03-20T03:42:50;9.03;;;4.37;;
43519;SDS011;46848;51.980;5.918;2023-03-20T03:45:32;9.77;;;4.73;;
43519;SDS011;46848;51.980;5.918;2023-03-20T03:50:43;11.20;;;5.47;;
43519;SDS011;46848;51.980;5.918;2023-03-20T03:53:17;11.73;;;5.03;;
43519;SDS011;46848;51.980;5.918;2023-03-20T03:55:49;11.00;;;5.37;;
43519;SDS011;46848;51.980;5.918;2023-03-20T04:00:45;12.70;;;6.10;;
43519;SDS011;46848;51.980;5.918;2023-03-20T04:03:14;11.30;;;5.90;;
43519;SDS011;46848;51.980;5.918;2023-03-20T04:05:42;14.07;;;6.20;;
43519;SDS011;46848;51.980;5.918;2023-03-20T04:08:10;18.10;;;6.43;;
43519;SDS011;46848;51.980;5.918;2023-03-20T04:10:36;13.67;;;7.07;;
43519;SDS011;46848;51.980;5.918;2023-03-20T04:13:01;14.13;;;7.07;;
43519;SDS011;46848;51.980;5.918;2023-03-20T04:15:27;14.20;;;7.30;;
43519;SDS011;46848;51.980;5.918;2023-03-20T04:17:53;16.17;;;7.67;;
43519;SDS011;46848;51.980;5.918;2023-03-20T04:20:19;17.67;;;8.60;;
43519;SDS011;46848;51.980;5.918;2023-03-20T04:22:44;17.50;;;8.80;;
43519;SDS011;46848;51.980;5.918;2023-03-20T04:25:20;17.83;;;8.50;;
43519;SDS011;46848;51.980;5.918;2023-03-20T04:27:48;13.67;;;7.60;;
43519;SDS011;46848;51.980;5.918;2023-03-20T04:30:14;13.03;;;8.03;;
43519;SDS011;46848;51.980;5.918;2023-03-20T04:32:40;16.67;;;9.07;;
43519;SDS011;46848;51.980;5.918;2023-03-20T04:35:06;16.83;;;9.23;;
43519;SDS011;46848;51.980;5.918;2023-03-20T04:37:32;22.20;;;10.77;;
43519;SDS011;46848;51.980;5.918;2023-03-20T04:39:58;21.90;;;11.80;;
43519;SDS011;46848;51.980;5.918;2023-03-20T04:42:23;22.87;;;13.10;;
43519;SDS011;46848;51.980;5.918;2023-03-20T04:44:49;23.30;;;12.97;;
43519;SDS011;46848;51.980;5.918;2023-03-20T04:47:15;21.60;;;11.80;;
43519;SDS011;46848;51.980;5.918;2023-03-20T04:49:40;19.50;;;12.13;;
43519;SDS011;46848;51.980;5.918;2023-03-20T04:52:06;21.27;;;11.67;;
43519;SDS011;46848;51.980;5.918;2023-03-20T04:54:32;18.70;;;11.83;;
43519;SDS011;46848;51.980;5.918;2023-03-20T04:56:58;21.03;;;11.70;;
43519;SDS011;46848;51.980;5.918;2023-03-20T04:59:23;21.90;;;11.97;;
43519;SDS011;46848;51.980;5.918;2023-03-20T05:01:49;19.57;;;11.77;;
43519;SDS011;46848;51.980;5.918;2023-03-20T05:04:15;20.27;;;11.27;;
43519;SDS011;46848;51.980;5.918;2023-03-20T05:06:40;19.47;;;11.63;;
43519;SDS011;46848;51.980;5.918;2023-03-20T05:09:07;20.90;;;11.83;;
43519;SDS011;46848;51.980;5.918;2023-03-20T05:11:34;21.13;;;11.50;;
43519;SDS011;46848;51.980;5.918;2023-03-20T05:13:59;20.10;;;11.67;;
43519;SDS011;46848;51.980;5.918;2023-03-20T05:16:25;21.03;;;11.80;;
43519;SDS011;46848;51.980;5.918;2023-03-20T05:18:51;18.10;;;10.60;;
43519;SDS011;46848;51.980;5.918;2023-03-20T05:21:16;19.57;;;11.47;;
43519;SDS011;46848;51.980;5.918;2023-03-20T05:23:42;18.73;;;10.90;;
43519;SDS011;46848;51.980;5.918;2023-03-20T05:26:08;18.70;;;10.73;;
43519;SDS011;46848;51.980;5.918;2023-03-20T05:28:33;18.80;;;10.40;;
43519;SDS011;46848;51.980;5.918;2023-03-20T05:30:59;17.17;;;9.33;;
43519;SDS011;46848;51.980;5.918;2023-03-20T05:33:24;15.67;;;9.87;;
43519;SDS011;46848;51.980;5.918;2023-03-20T05:35:50;14.43;;;8.83;;
43519;SDS011;46848;51.980;5.918;2023-03-20T05:38:16;18.43;;;9.60;;
43519;SDS011;46848;51.980;5.918;2023-03-20T05:40:41;17.30;;;9.07;;
43519;SDS011;46848;51.980;5.918;2023-03-20T05:43:07;20.23;;;9.93;;
43519;SDS011;46848;51.980;5.918;2023-03-20T05:45:33;19.50;;;9.33;;
43519;SDS011;46848;51.980;5.918;2023-03-20T05:47:58;18.90;;;9.67;;
43519;SDS011;46848;51.980;5.918;2023-03-20T05:50:24;18.87;;;9.10;;
43519;SDS011;46848;51.980;5.918;2023-03-20T05:52:50;16.90;;;9.67;;
43519;SDS011;46848;51.980;5.918;2023-03-20T05:55:15;14.83;;;8.13;;
43519;SDS011;46848;51.980;5.918;2023-03-20T05:57:41;18.67;;;8.67;;
43519;SDS011;46848;51.980;5.918;2023-03-20T06:00:07;17.17;;;8.70;;
43519;SDS011;46848;51.980;5.918;2023-03-20T06:02:34;16.10;;;8.33;;
43519;SDS011;46848;51.980;5.918;2023-03-20T06:05:00;14.60;;;7.87;;
43519;SDS011;46848;51.980;5.918;2023-03-20T06:07:26;13.90;;;7.00;;
43519;SDS011;46848;51.980;5.918;2023-03-20T06:09:52;17.87;;;8.23;;
43519;SDS011;46848;51.980;5.918;2023-03-20T06:12:18;11.57;;;7.53;;
43519;SDS011;46848;51.980;5.918;2023-03-20T06:14:44;12.30;;;7.10;;
43519;SDS011;46848;51.980;5.918;2023-03-20T06:17:10;14.47;;;7.43;;
43519;SDS011;46848;51.980;5.918;2023-03-20T06:19:35;14.07;;;6.77;;
43519;SDS011;46848;51.980;5.918;2023-03-20T06:22:02;12.97;;;6.87;;
43519;SDS011;46848;51.980;5.918;2023-03-20T06:24:28;16.87;;;6.57;;
43519;SDS011;46848;51.980;5.918;2023-03-20T06:26:53;15.07;;;7.07;;
43519;SDS011;46848;51.980;5.918;2023-03-20T06:29:19;12.10;;;7.00;;
43519;SDS011;46848;51.980;5.918;2023-03-20T06:31:45;14.20;;;7.50;;
43519;SDS011;46848;51.980;5.918;2023-03-20T06:34:10;14.10;;;6.83;;
43519;SDS011;46848;51.980;5.918;2023-03-20T06:36:36;14.47;;;7.63;;
43519;SDS011;46848;51.980;5.918;2023-03-20T06:39:02;15.20;;;7.77;;
43519;SDS011;46848;51.980;5.918;2023-03-20T06:41:28;17.90;;;7.57;;
43519;SDS011;46848;51.980;5.918;2023-03-20T06:43:53;13.73;;;7.80;;
43519;SDS011;46848;51.980;5.918;2023-03-20T06:46:19;18.60;;;8.83;;
43519;SDS011;46848;51.980;5.918;2023-03-20T06:48:45;17.47;;;7.63;;
43519;SDS011;46848;51.980;5.918;2023-03-20T06:51:11;15.20;;;7.47;;
43519;SDS011;46848;51.980;5.918;2023-03-20T06:53:36;15.27;;;8.00;;
43519;SDS011;46848;51.980;5.918;2023-03-20T06:56:03;12.90;;;7.57;;
43519;SDS011;46848;51.980;5.918;2023-03-20T06:58:29;13.70;;;8.13;;
43519;SDS011;46848;51.980;5.918;2023-03-20T07:00:55;14.90;;;8.27;;
43519;SDS011;46848;51.980;5.918;2023-03-20T07:03:21;16.83;;;7.97;;
43519;SDS011;46848;51.980;5.918;2023-03-20T07:05:46;16.20;;;7.63;;
43519;SDS011;46848;51.980;5.918;2023-03-20T07:08:12;11.43;;;7.07;;
43519;SDS011;46848;51.980;5.918;2023-03-20T07:10:39;12.63;;;7.90;;
43519;SDS011;46848;51.980;5.918;2023-03-20T07:13:04;13.60;;;7.47;;
43519;SDS011;46848;51.980;5.918;2023-03-20T07:15:30;14.90;;;7.53;;
43519;SDS011;46848;51.980;5.918;2023-03-20T07:17:56;14.27;;;6.53;;
43519;SDS011;46848;51.980;5.918;2023-03-20T07:20:22;10.57;;;6.47;;
43519;SDS011;46848;51.980;5.918;2023-03-20T07:22:47;12.90;;;6.87;;
43519;SDS011;46848;51.980;5.918;2023-03-20T07:25:13;11.07;;;6.53;;
43519;SDS011;46848;51.980;5.918;2023-03-20T07:27:40;12.67;;;6.33;;
43519;SDS011;46848;51.980;5.918;2023-03-20T07:30:07;12.77;;;6.30;;
43519;SDS011;46848;51.980;5.918;2023-03-20T07:32:33;14.50;;;6.57;;
43519;SDS011;46848;51.980;5.918;2023-03-20T07:35:01;12.57;;;6.67;;
43519;SDS011;46848;51.980;5.918;2023-03-20T07:37:27;11.03;;;6.17;;
43519;SDS011;46848;51.980;5.918;2023-03-20T07:39:52;11.47;;;6.43;;
43519;SDS011;46848;51.980;5.918;2023-03-20T07:42:18;12.63;;;6.33;;
43519;SDS011;46848;51.980;5.918;2023-03-20T07:44:43;15.07;;;6.77;;
43519;SDS011;46848;51.980;5.918;2023-03-20T07:47:09;12.90;;;7.10;;
43519;SDS011;46848;51.980;5.918;2023-03-20T07:49:34;12.38;;;5.88;;
43519;SDS011;46848;51.980;5.918;2023-03-20T07:52:00;10.30;;;5.67;;
43519;SDS011;46848;51.980;5.918;2023-03-20T07:54:26;10.10;;;5.88;;
43519;SDS011;46848;51.980;5.918;2023-03-20T07:56:51;11.65;;;5.88;;
43519;SDS011;46848;51.980;5.918;2023-03-20T07:59:17;13.38;;;6.57;;
43519;SDS011;46848;51.980;5.918;2023-03-20T08:01:43;10.20;;;5.53;;
43519;SDS011;46848;51.980;5.918;2023-03-20T08:04:09;10.82;;;5.95;;
43519;SDS011;46848;51.980;5.918;2023-03-20T08:06:35;11.80;;;5.90;;
43519;SDS011;46848;51.980;5.918;2023-03-20T08:09:03;11.52;;;5.60;;
43519;SDS011;46848;51.980;5.918;2023-03-20T08:11:30;12.20;;;5.82;;
43519;SDS011;46848;51.980;5.918;2023-03-20T08:13:55;9.45;;;5.63;;
43519;SDS011;46848;51.980;5.918;2023-03-20T08:16:21;10.00;;;5.13;;
43519;SDS011;46848;51.980;5.918;2023-03-20T08:18:46;11.05;;;5.35;;
43519;SDS011;46848;51.980;5.918;2023-03-20T08:21:14;12.15;;;5.28;;
43519;SDS011;46848;51.980;5.918;2023-03-20T08:23:40;16.23;;;5.85;;
43519;SDS011;46848;51.980;5.918;2023-03-20T08:26:06;11.60;;;5.05;;
43519;SDS011;46848;51.980;5.918;2023-03-20T08:28:31;8.55;;;4.40;;
43519;SDS011;46848;51.980;5.918;2023-03-20T08:30:57;10.80;;;5.07;;
43519;SDS011;46848;51.980;5.918;2023-03-20T08:33:22;9.93;;;5.75;;
43519;SDS011;46848;51.980;5.918;2023-03-20T08:35:57;12.95;;;5.50;;
43519;SDS011;46848;51.980;5.918;2023-03-20T08:38:23;11.32;;;5.30;;
43519;SDS011;46848;51.980;5.918;2023-03-20T08:40:49;11.13;;;5.22;;
43519;SDS011;46848;51.980;5.918;2023-03-20T08:43:15;12.38;;;5.82;;
43519;SDS011;46848;51.980;5.918;2023-03-20T08:45:41;12.10;;;5.07;;
43519;SDS011;46848;51.980;5.918;2023-03-20T08:48:07;10.50;;;4.38;;
43519;SDS011;46848;51.980;5.918;2023-03-20T08:50:33;11.20;;;5.25;;
43519;SDS011;46848;51.980;5.918;2023-03-20T08:52:59;12.70;;;5.60;;
43519;SDS011;46848;51.980;5.918;2023-03-20T08:55:25;11.13;;;5.10;;
43519;SDS011;46848;51.980;5.918;2023-03-20T08:57:51;10.43;;;5.15;;
43519;SDS011;46848;51.980;5.918;2023-03-20T09:00:18;9.40;;;4.90;;
43519;SDS011;46848;51.980;5.918;2023-03-20T09:02:44;7.85;;;4.28;;
43519;SDS011;46848;51.980;5.918;2023-03-20T09:05:11;11.93;;;5.68;;
43519;SDS011;46848;51.980;5.918;2023-03-20T09:07:36;10.75;;;5.57;;
43519;SDS011;46848;51.980;5.918;2023-03-20T09:10:03;9.68;;;4.55;;
43519;SDS011;46848;51.980;5.918;2023-03-20T09:12:30;11.30;;;4.75;;
43519;SDS011;46848;51.980;5.918;2023-03-20T09:14:58;11.55;;;4.50;;
43519;SDS011;46848;51.980;5.918;2023-03-20T09:17:25;8.07;;;4.03;;
43519;SDS011;46848;51.980;5.918;2023-03-20T09:19:50;8.98;;;4.72;;
43519;SDS011;46848;51.980;5.918;2023-03-20T09:22:16;10.65;;;4.35;;
43519;SDS011;46848;51.980;5.918;2023-03-20T09:24:42;8.73;;;4.40;;
43519;SDS011;46848;51.980;5.918;2023-03-20T09:27:08;11.38;;;4.25;;
43519;SDS011;46848;51.980;5.918;2023-03-20T09:29:34;11.30;;;4.45;;
43519;SDS011;46848;51.980;5.918;2023-03-20T09:32:00;10.45;;;4.30;;
43519;SDS011;46848;51.980;5.918;2023-03-20T09:34:25;10.27;;;4.35;;
43519;SDS011;46848;51.980;5.918;2023-03-20T09:36:52;11.93;;;4.90;;
43519;SDS011;46848;51.980;5.918;2023-03-20T09:39:18;12.38;;;4.07;;
43519;SDS011;46848;51.980;5.918;2023-03-20T09:41:47;14.30;;;4.78;;
43519;SDS011;46848;51.980;5.918;2023-03-20T09:47:18;12.63;;;4.53;;
43519;SDS011;46848;51.980;5.918;2023-03-20T09:52:31;13.75;;;4.60;;
43519;SDS011;46848;51.980;5.918;2023-03-20T09:55:03;9.68;;;3.63;;
43519;SDS011;46848;51.980;5.918;2023-03-20T09:57:37;7.63;;;3.67;;
43519;SDS011;46848;51.980;5.918;2023-03-20T10:00:25;10.93;;;4.05;;
43519;SDS011;46848;51.980;5.918;2023-03-20T10:03:05;10.38;;;3.35;;
43519;SDS011;46848;51.980;5.918;2023-03-20T10:05:44;11.95;;;3.97;;
43519;SDS011;46848;51.980;5.918;2023-03-20T10:08:14;9.77;;;3.80;;
43519;SDS011;46848;51.980;5.918;2023-03-20T10:10:50;10.85;;;4.13;;
43519;SDS011;46848;51.980;5.918;2023-03-20T10:13:34;9.65;;;4.00;;
43519;SDS011;46848;51.980;5.918;2023-03-20T10:22:06;10.32;;;4.50;;
43519;SDS011;46848;51.980;5.918;2023-03-20T10:27:56;10.13;;;4.30;;
43519;SDS011;46848;51.980;5.918;2023-03-20T10:41:12;13.18;;;4.60;;
43519;SDS011;46848;51.980;5.918;2023-03-20T10:43:43;10.38;;;3.70;;
43519;SDS011;46848;51.980;5.918;2023-03-20T10:46:16;13.20;;;4.57;;
43519;SDS011;46848;51.980;5.918;2023-03-20T10:51:21;9.40;;;3.53;;
43519;SDS011;46848;51.980;5.918;2023-03-20T10:53:59;10.40;;;3.78;;
43519;SDS011;46848;51.980;5.918;2023-03-20T10:56:29;11.18;;;3.90;;
43519;SDS011;46848;51.980;5.918;2023-03-20T10:59:04;8.82;;;3.50;;
43519;SDS011;46848;51.980;5.918;2023-03-20T11:01:32;9.50;;;3.20;;
43519;SDS011;46848;51.980;5.918;2023-03-20T11:03:58;7.25;;;3.00;;
43519;SDS011;46848;51.980;5.918;2023-03-20T11:06:24;7.68;;;3.00;;
43519;SDS011;46848;51.980;5.918;2023-03-20T11:08:56;6.50;;;2.30;;
43519;SDS011;46848;51.980;5.918;2023-03-20T11:11:41;7.60;;;2.47;;
43519;SDS011;46848;51.980;5.918;2023-03-20T11:14:19;9.52;;;2.88;;
43519;SDS011;46848;51.980;5.918;2023-03-20T11:16:56;11.88;;;3.03;;
43519;SDS011;46848;51.980;5.918;2023-03-20T11:19:25;7.63;;;2.58;;
43519;SDS011;46848;51.980;5.918;2023-03-20T11:21:55;11.10;;;3.28;;
43519;SDS011;46848;51.980;5.918;2023-03-20T11:27:05;11.68;;;2.65;;
43519;SDS011;46848;51.980;5.918;2023-03-20T11:29:31;8.00;;;2.17;;
43519;SDS011;46848;51.980;5.918;2023-03-20T11:32:44;10.02;;;2.78;;
43519;SDS011;46848;51.980;5.918;2023-03-20T11:34:48;9.80;;;2.78;;
43519;SDS011;46848;51.980;5.918;2023-03-20T11:37:25;11.60;;;3.10;;
43519;SDS011;46848;51.980;5.918;2023-03-20T11:39:58;7.55;;;2.80;;
43519;SDS011;46848;51.980;5.918;2023-03-20T11:42:31;10.25;;;2.70;;
43519;SDS011;46848;51.980;5.918;2023-03-20T11:45:16;9.55;;;2.63;;
43519;SDS011;46848;51.980;5.918;2023-03-20T11:47:42;9.57;;;2.90;;
43519;SDS011;46848;51.980;5.918;2023-03-20T11:50:23;9.65;;;3.60;;
43519;SDS011;46848;51.980;5.918;2023-03-20T11:52:50;10.37;;;3.47;;
43519;SDS011;46848;51.980;5.918;2023-03-20T11:55:25;9.80;;;3.70;;
43519;SDS011;46848;51.980;5.918;2023-03-20T11:57:59;12.68;;;4.25;;
43519;SDS011;46848;51.980;5.918;2023-03-20T12:00:29;12.88;;;3.58;;
43519;SDS011;46848;51.980;5.918;2023-03-20T12:03:01;10.50;;;3.33;;
43519;SDS011;46848;51.980;5.918;2023-03-20T12:05:29;8.37;;;3.20;;
43519;SDS011;46848;51.980;5.918;2023-03-20T12:08:17;12.83;;;4.30;;
43519;SDS011;46848;51.980;5.918;2023-03-20T12:10:49;9.07;;;3.60;;
43519;SDS011;46848;51.980;5.918;2023-03-20T12:13:28;11.80;;;3.50;;
43519;SDS011;46848;51.980;5.918;2023-03-20T12:16:01;11.70;;;3.33;;
43519;SDS011;46848;51.980;5.918;2023-03-20T12:18:42;11.27;;;3.73;;
43519;SDS011;46848;51.980;5.918;2023-03-20T12:29:54;10.47;;;3.13;;
43519;SDS011;46848;51.980;5.918;2023-03-20T12:32:25;10.17;;;4.33;;
43519;SDS011;46848;51.980;5.918;2023-03-20T12:37:26;10.73;;;3.73;;
43519;SDS011;46848;51.980;5.918;2023-03-20T12:39:53;10.33;;;3.17;;
43519;SDS011;46848;51.980;5.918;2023-03-20T12:45:07;12.57;;;4.20;;
43519;SDS011;46848;51.980;5.918;2023-03-20T12:56:43;9.97;;;4.30;;
43519;SDS011;46848;51.980;5.918;2023-03-20T13:04:43;12.50;;;4.70;;
43519;SDS011;46848;51.980;5.918;2023-03-20T13:07:21;17.50;;;5.37;;
43519;SDS011;46848;51.980;5.918;2023-03-20T13:10:16;14.97;;;5.37;;
43519;SDS011;46848;51.980;5.918;2023-03-20T13:16:50;21.67;;;5.90;;
43519;SDS011;46848;51.980;5.918;2023-03-20T13:22:12;14.83;;;5.60;;
43519;SDS011;46848;51.980;5.918;2023-03-20T13:30:06;17.63;;;6.27;;
43519;SDS011;46848;51.980;5.918;2023-03-20T13:33:55;21.27;;;5.53;;
43519;SDS011;46848;51.980;5.918;2023-03-20T13:38:28;15.82;;;5.43;;
43519;SDS011;46848;51.980;5.918;2023-03-20T13:40:59;18.13;;;5.27;;
43519;SDS011;46848;51.980;5.918;2023-03-20T13:46:21;18.00;;;6.57;;
43519;SDS011;46848;51.980;5.918;2023-03-20T13:49:03;14.40;;;5.53;;
43519;SDS011;46848;51.980;5.918;2023-03-20T13:51:47;16.23;;;5.80;;
43519;SDS011;46848;51.980;5.918;2023-03-20T13:57:12;15.80;;;5.43;;
43519;SDS011;46848;51.980;5.918;2023-03-20T14:02:49;14.02;;;5.60;;
43519;SDS011;46848;51.980;5.918;2023-03-20T14:05:40;17.50;;;6.43;;
43519;SDS011;46848;51.980;5.918;2023-03-20T14:08:19;14.87;;;5.67;;
43519;SDS011;46848;51.980;5.918;2023-03-20T14:10:55;14.57;;;5.57;;
43519;SDS011;46848;51.980;5.918;2023-03-20T14:13:34;18.23;;;5.67;;
43519;SDS011;46848;51.980;5.918;2023-03-20T14:16:07;16.33;;;5.50;;
43519;SDS011;46848;51.980;5.918;2023-03-20T14:18:33;13.20;;;5.60;;
43519;SDS011;46848;51.980;5.918;2023-03-20T14:21:01;16.93;;;5.97;;
43519;SDS011;46848;51.980;5.918;2023-03-20T14:23:32;13.03;;;5.63;;
43519;SDS011;46848;51.980;5.918;2023-03-20T14:28:29;14.20;;;5.97;;
43519;SDS011;46848;51.980;5.918;2023-03-20T14:33:52;19.73;;;6.40;;
43519;SDS011;46848;51.980;5.918;2023-03-20T14:36:26;21.63;;;5.53;;
43519;SDS011;46848;51.980;5.918;2023-03-20T14:44:43;15.88;;;5.82;;
43519;SDS011;46848;51.980;5.918;2023-03-20T14:50:02;17.17;;;5.80;;
43519;SDS011;46848;51.980;5.918;2023-03-20T14:52:52;20.57;;;5.80;;
43519;SDS011;46848;51.980;5.918;2023-03-20T14:57:51;11.73;;;5.63;;
43519;SDS011;46848;51.980;5.918;2023-03-20T15:00:18;16.87;;;5.70;;
43519;SDS011;46848;51.980;5.918;2023-03-20T15:03:04;13.83;;;4.70;;
43519;SDS011;46848;51.980;5.918;2023-03-20T15:05:35;11.87;;;5.13;;
43519;SDS011;46848;51.980;5.918;2023-03-20T15:08:07;14.03;;;5.23;;
43519;SDS011;46848;51.980;5.918;2023-03-20T15:10:53;16.00;;;6.80;;
43519;SDS011;46848;51.980;5.918;2023-03-20T15:13:21;15.17;;;6.23;;
43519;SDS011;46848;51.980;5.918;2023-03-20T15:15:53;12.83;;;5.47;;
43519;SDS011;46848;51.980;5.918;2023-03-20T15:18:22;13.13;;;5.60;;
43519;SDS011;46848;51.980;5.918;2023-03-20T15:20:49;14.23;;;5.53;;
43519;SDS011;46848;51.980;5.918;2023-03-20T15:23:15;16.07;;;6.00;;
43519;SDS011;46848;51.980;5.918;2023-03-20T15:25:42;12.50;;;4.80;;
43519;SDS011;46848;51.980;5.918;2023-03-20T15:28:19;17.53;;;6.27;;
43519;SDS011;46848;51.980;5.918;2023-03-20T15:30:48;18.30;;;6.53;;
43519;SDS011;46848;51.980;5.918;2023-03-20T15:33:16;17.60;;;7.17;;
43519;SDS011;46848;51.980;5.918;2023-03-20T15:35:52;16.03;;;6.17;;
43519;SDS011;46848;51.980;5.918;2023-03-20T15:38:19;12.43;;;5.70;;
43519;SDS011;46848;51.980;5.918;2023-03-20T15:40:45;12.27;;;5.73;;
43519;SDS011;46848;51.980;5.918;2023-03-20T15:43:16;15.03;;;5.83;;
43519;SDS011;46848;51.980;5.918;2023-03-20T15:45:44;20.73;;;6.83;;
43519;SDS011;46848;51.980;5.918;2023-03-20T15:48:14;18.03;;;6.97;;
43519;SDS011;46848;51.980;5.918;2023-03-20T15:50:42;15.60;;;6.20;;
43519;SDS011;46848;51.980;5.918;2023-03-20T15:53:15;14.83;;;5.33;;
43519;SDS011;46848;51.980;5.918;2023-03-20T15:55:51;17.27;;;5.80;;
43519;SDS011;46848;51.980;5.918;2023-03-20T15:58:19;14.20;;;5.63;;
43519;SDS011;46848;51.980;5.918;2023-03-20T16:00:45;15.50;;;6.03;;
43519;SDS011;46848;51.980;5.918;2023-03-20T16:03:16;12.53;;;5.90;;
43519;SDS011;46848;51.980;5.918;2023-03-20T16:05:45;13.30;;;5.55;;
43519;SDS011;46848;51.980;5.918;2023-03-20T16:08:29;14.87;;;5.20;;
43519;SDS011;46848;51.980;5.918;2023-03-20T16:11:21;13.20;;;5.30;;
43519;SDS011;46848;51.980;5.918;2023-03-20T16:13:46;11.70;;;4.83;;
43519;SDS011;46848;51.980;5.918;2023-03-20T16:16:14;14.73;;;6.73;;
43519;SDS011;46848;51.980;5.918;2023-03-20T16:18:45;16.15;;;5.63;;
43519;SDS011;46848;51.980;5.918;2023-03-20T16:21:25;15.57;;;5.33;;
43519;SDS011;46848;51.980;5.918;2023-03-20T16:23:55;13.20;;;5.60;;
43519;SDS011;46848;51.980;5.918;2023-03-20T16:26:22;13.53;;;5.03;;
43519;SDS011;46848;51.980;5.918;2023-03-20T16:28:59;20.33;;;6.53;;
43519;SDS011;46848;51.980;5.918;2023-03-20T16:31:28;17.03;;;6.23;;
43519;SDS011;46848;51.980;5.918;2023-03-20T16:33:59;15.03;;;6.07;;
43519;SDS011;46848;51.980;5.918;2023-03-20T16:36:29;13.20;;;5.80;;
43519;SDS011;46848;51.980;5.918;2023-03-20T16:44:04;15.53;;;5.83;;
43519;SDS011;46848;51.980;5.918;2023-03-20T16:46:36;14.33;;;5.27;;
43519;SDS011;46848;51.980;5.918;2023-03-20T16:51:56;9.30;;;4.00;;
43519;SDS011;46848;51.980;5.918;2023-03-20T16:54:23;12.20;;;5.00;;
43519;SDS011;46848;51.980;5.918;2023-03-20T16:56:53;10.13;;;4.60;;
43519;SDS011;46848;51.980;5.918;2023-03-20T16:59:20;14.60;;;5.53;;
43519;SDS011;46848;51.980;5.918;2023-03-20T17:01:47;18.40;;;6.10;;
43519;SDS011;46848;51.980;5.918;2023-03-20T17:04:31;13.13;;;4.80;;
43519;SDS011;46848;51.980;5.918;2023-03-20T17:09:51;12.63;;;4.90;;
43519;SDS011;46848;51.980;5.918;2023-03-20T17:12:37;11.33;;;5.03;;
43519;SDS011;46848;51.980;5.918;2023-03-20T17:15:04;12.63;;;5.10;;
43519;SDS011;46848;51.980;5.918;2023-03-20T17:17:30;8.23;;;4.80;;
43519;SDS011;46848;51.980;5.918;2023-03-20T17:19:56;10.77;;;5.83;;
43519;SDS011;46848;51.980;5.918;2023-03-20T17:22:23;11.13;;;5.23;;